sensor_id;sensor_type;location;lat;lon;timestamp;pressure;altitude;pressure_sealevel;temperature;humidity
74794;BME280;63320;50.768;6.724;2023-08-12T00:01:06;100433.88;;;21.69;100.00
74794;BME280;63320;50.768;6.724;2023-08-12T00:03:33;100436.00;;;21.76;100.00
74794;BME280;63320;50.768;6.724;2023-08-12T00:05:59;100435.84;;;21.77;100.00
74794;BME280;63320;50.768;6.724;2023-08-12T00:08:24;100445.84;;;21.75;99.98
74794;BME280;63320;50.768;6.724;2023-08-12T00:10:49;100455.44;;;21.78;99.61
74794;BME280;63320;50.768;6.724;2023-08-12T00:13:15;100459.22;;;21.65;100.00
74794;BME280;63320;50.768;6.724;2023-08-12T00:15:40;100463.75;;;21.75;100.00
74794;BME280;63320;50.768;6.724;2023-08-12T00:18:05;100454.88;;;21.93;100.00
74794;BME280;63320;50.768;6.724;2023-08-12T00:20:32;100462.63;;;21.96;99.74
74794;BME280;63320;50.768;6.724;2023-08-12T00:22:57;100461.19;;;21.54;98.62
74794;BME280;63320;50.768;6.724;2023-08-12T00:25:23;100447.41;;;21.78;99.79
74794;BME280;63320;50.768;6.724;2023-08-12T00:27:48;100441.19;;;21.96;98.17
74794;BME280;63320;50.768;6.724;2023-08-12T00:30:14;100437.53;;;21.78;98.81
74794;BME280;63320;50.768;6.724;2023-08-12T00:32:39;100436.41;;;21.81;99.20
74794;BME280;63320;50.768;6.724;2023-08-12T00:35:05;100437.84;;;21.75;100.00
74794;BME280;63320;50.768;6.724;2023-08-12T00:37:32;100428.81;;;21.76;99.97
74794;BME280;63320;50.768;6.724;2023-08-12T00:39:58;100430.22;;;21.90;99.57
74794;BME280;63320;50.768;6.724;2023-08-12T00:42:23;100425.97;;;21.87;98.76
74794;BME280;63320;50.768;6.724;2023-08-12T00:44:48;100418.78;;;21.88;98.25
74794;BME280;63320;50.768;6.724;2023-08-12T00:47:14;100427.38;;;21.72;99.31
74794;BME280;63320;50.768;6.724;2023-08-12T00:49:40;100418.94;;;21.77;99.19
74794;BME280;63320;50.768;6.724;2023-08-12T00:52:05;100409.91;;;21.78;98.66
74794;BME280;63320;50.768;6.724;2023-08-12T00:54:32;100406.28;;;21.69;98.68
74794;BME280;63320;50.768;6.724;2023-08-12T00:56:58;100391.06;;;21.60;99.62
74794;BME280;63320;50.768;6.724;2023-08-12T00:59:24;100400.63;;;21.62;98.87
74794;BME280;63320;50.768;6.724;2023-08-12T01:01:50;100395.28;;;21.62;99.69
74794;BME280;63320;50.768;6.724;2023-08-12T01:04:15;100402.31;;;21.63;99.67
74794;BME280;63320;50.768;6.724;2023-08-12T01:06:41;100386.97;;;21.65;99.64
74794;BME280;63320;50.768;6.724;2023-08-12T01:09:06;100383.03;;;21.50;100.00
74794;BME280;63320;50.768;6.724;2023-08-12T01:11:36;100389.91;;;21.43;100.00
74794;BME280;63320;50.768;6.724;2023-08-12T01:14:07;100387.53;;;21.40;100.00
74794;BME280;63320;50.768;6.724;2023-08-12T01:16:40;100380.59;;;21.37;100.00
74794;BME280;63320;50.768;6.724;2023-08-12T01:19:09;100377.09;;;21.37;100.00
74794;BME280;63320;50.768;6.724;2023-08-12T01:21:37;100370.50;;;21.41;100.00
74794;BME280;63320;50.768;6.724;2023-08-12T01:24:07;100362.59;;;21.39;99.76
74794;BME280;63320;50.768;6.724;2023-08-12T01:26:32;100368.50;;;21.43;100.00
74794;BME280;63320;50.768;6.724;2023-08-12T01:28:58;100377.81;;;21.39;100.00
74794;BME280;63320;50.768;6.724;2023-08-12T01:31:29;100361.72;;;21.29;99.61
74794;BME280;63320;50.768;6.724;2023-08-12T01:34:02;100367.53;;;21.34;99.72
74794;BME280;63320;50.768;6.724;2023-08-12T01:36:32;100361.88;;;21.37;99.90
74794;BME280;63320;50.768;6.724;2023-08-12T01:39:00;100349.91;;;21.32;99.61
74794;BME280;63320;50.768;6.724;2023-08-12T01:41:27;100355.25;;;21.32;100.00
74794;BME280;63320;50.768;6.724;2023-08-12T01:43:53;100356.25;;;21.40;99.12
74794;BME280;63320;50.768;6.724;2023-08-12T01:46:18;100353.81;;;21.28;100.00
74794;BME280;63320;50.768;6.724;2023-08-12T01:48:43;100340.84;;;21.23;100.00
74794;BME280;63320;50.768;6.724;2023-08-12T01:51:09;100351.56;;;21.23;100.00
74794;BME280;63320;50.768;6.724;2023-08-12T01:53:34;100346.53;;;21.30;99.98
74794;BME280;63320;50.768;6.724;2023-08-12T01:55:59;100358.09;;;21.30;100.00
74794;BME280;63320;50.768;6.724;2023-08-12T01:58:26;100354.13;;;21.25;99.74
74794;BME280;63320;50.768;6.724;2023-08-12T02:00:51;100363.56;;;21.29;99.33
74794;BME280;63320;50.768;6.724;2023-08-12T02:03:17;100356.63;;;21.26;100.00
74794;BME280;63320;50.768;6.724;2023-08-12T02:05:42;100358.22;;;21.29;99.64
74794;BME280;63320;50.768;6.724;2023-08-12T02:08:07;100355.66;;;21.27;100.00
74794;BME280;63320;50.768;6.724;2023-08-12T02:10:33;100354.81;;;21.27;100.00
74794;BME280;63320;50.768;6.724;2023-08-12T02:12:58;100341.16;;;21.30;100.00
74794;BME280;63320;50.768;6.724;2023-08-12T02:15:25;100347.09;;;21.33;99.85
74794;BME280;63320;50.768;6.724;2023-08-12T02:17:50;100351.75;;;21.31;99.61
74794;BME280;63320;50.768;6.724;2023-08-12T02:20:16;100350.19;;;21.38;99.97
74794;BME280;63320;50.768;6.724;2023-08-12T02:22:41;100352.44;;;21.33;100.00
74794;BME280;63320;50.768;6.724;2023-08-12T02:25:07;100347.50;;;21.29;100.00
74794;BME280;63320;50.768;6.724;2023-08-12T02:27:33;100346.81;;;21.36;100.00
74794;BME280;63320;50.768;6.724;2023-08-12T02:29:58;100349.66;;;21.35;99.80
74794;BME280;63320;50.768;6.724;2023-08-12T02:32:27;100350.78;;;21.42;99.44
74794;BME280;63320;50.768;6.724;2023-08-12T02:34:53;100347.94;;;21.43;98.91
74794;BME280;63320;50.768;6.724;2023-08-12T02:37:18;100339.38;;;21.40;99.29
74794;BME280;63320;50.768;6.724;2023-08-12T02:39:43;100336.13;;;21.36;100.00
74794;BME280;63320;50.768;6.724;2023-08-12T02:42:09;100329.06;;;21.26;100.00
74794;BME280;63320;50.768;6.724;2023-08-12T02:44:34;100323.44;;;21.19;100.00
74794;BME280;63320;50.768;6.724;2023-08-12T02:46:59;100323.44;;;21.29;100.00
74794;BME280;63320;50.768;6.724;2023-08-12T02:49:26;100320.50;;;21.32;100.00
74794;BME280;63320;50.768;6.724;2023-08-12T02:51:51;100324.31;;;21.39;100.00
74794;BME280;63320;50.768;6.724;2023-08-12T02:54:17;100327.69;;;21.41;99.78
74794;BME280;63320;50.768;6.724;2023-08-12T02:56:42;100319.81;;;21.39;100.00
74794;BME280;63320;50.768;6.724;2023-08-12T02:59:07;100316.41;;;21.37;99.63
74794;BME280;63320;50.768;6.724;2023-08-12T03:01:33;100313.88;;;21.36;99.52
74794;BME280;63320;50.768;6.724;2023-08-12T03:03:58;100305.25;;;21.23;100.00
74794;BME280;63320;50.768;6.724;2023-08-12T03:06:25;100301.16;;;21.18;100.00
74794;BME280;63320;50.768;6.724;2023-08-12T03:08:50;100296.38;;;21.12;100.00
74794;BME280;63320;50.768;6.724;2023-08-12T03:11:15;100294.69;;;21.11;100.00
74794;BME280;63320;50.768;6.724;2023-08-12T03:13:41;100289.63;;;21.08;100.00
74794;BME280;63320;50.768;6.724;2023-08-12T03:16:11;100285.25;;;21.07;100.00
74794;BME280;63320;50.768;6.724;2023-08-12T03:18:36;100280.47;;;21.01;100.00
74794;BME280;63320;50.768;6.724;2023-08-12T03:21:05;100277.25;;;21.07;100.00
74794;BME280;63320;50.768;6.724;2023-08-12T03:23:32;100285.41;;;21.06;100.00
74794;BME280;63320;50.768;6.724;2023-08-12T03:25:57;100281.31;;;20.92;100.00
74794;BME280;63320;50.768;6.724;2023-08-12T03:28:22;100275.53;;;20.97;100.00
74794;BME280;63320;50.768;6.724;2023-08-12T03:30:51;100271.31;;;20.84;100.00
74794;BME280;63320;50.768;6.724;2023-08-12T03:33:16;100274.84;;;20.85;100.00
74794;BME280;63320;50.768;6.724;2023-08-12T03:35:44;100267.41;;;20.88;100.00
74794;BME280;63320;50.768;6.724;2023-08-12T03:38:10;100266.25;;;20.91;100.00
74794;BME280;63320;50.768;6.724;2023-08-12T03:40:38;100263.84;;;20.88;100.00
74794;BME280;63320;50.768;6.724;2023-08-12T03:43:04;100251.63;;;20.95;99.74
74794;BME280;63320;50.768;6.724;2023-08-12T03:45:29;100244.03;;;20.90;100.00
74794;BME280;63320;50.768;6.724;2023-08-12T03:47:54;100244.00;;;20.81;100.00
74794;BME280;63320;50.768;6.724;2023-08-12T03:50:20;100240.78;;;20.87;100.00
74794;BME280;63320;50.768;6.724;2023-08-12T03:52:45;100237.41;;;20.85;100.00
74794;BME280;63320;50.768;6.724;2023-08-12T03:55:11;100244.56;;;20.75;100.00
74794;BME280;63320;50.768;6.724;2023-08-12T03:57:37;100239.22;;;20.75;100.00
74794;BME280;63320;50.768;6.724;2023-08-12T04:00:04;100238.66;;;20.81;100.00
74794;BME280;63320;50.768;6.724;2023-08-12T04:02:29;100246.13;;;20.77;100.00
74794;BME280;63320;50.768;6.724;2023-08-12T04:04:55;100250.06;;;20.83;100.00
74794;BME280;63320;50.768;6.724;2023-08-12T04:07:20;100256.69;;;20.79;100.00
74794;BME280;63320;50.768;6.724;2023-08-12T04:09:45;100250.34;;;20.80;100.00
74794;BME280;63320;50.768;6.724;2023-08-12T04:12:11;100254.00;;;20.79;100.00
74794;BME280;63320;50.768;6.724;2023-08-12T04:14:37;100238.66;;;20.81;100.00
74794;BME280;63320;50.768;6.724;2023-08-12T04:17:03;100241.06;;;20.74;100.00
74794;BME280;63320;50.768;6.724;2023-08-12T04:19:28;100237.97;;;20.79;100.00
74794;BME280;63320;50.768;6.724;2023-08-12T04:21:54;100246.53;;;20.82;99.88
74794;BME280;63320;50.768;6.724;2023-08-12T04:24:19;100249.06;;;20.64;100.00
74794;BME280;63320;50.768;6.724;2023-08-12T04:26:44;100242.59;;;20.67;100.00
74794;BME280;63320;50.768;6.724;2023-08-12T04:29:10;100239.50;;;20.72;100.00
74794;BME280;63320;50.768;6.724;2023-08-12T04:31:36;100233.03;;;20.64;100.00
74794;BME280;63320;50.768;6.724;2023-08-12T04:34:02;100228.38;;;20.66;100.00
74794;BME280;63320;50.768;6.724;2023-08-12T04:36:28;100215.88;;;20.67;100.00
74794;BME280;63320;50.768;6.724;2023-08-12T04:38:53;100213.59;;;20.62;100.00
74794;BME280;63320;50.768;6.724;2023-08-12T04:41:18;100203.34;;;20.58;100.00
74794;BME280;63320;50.768;6.724;2023-08-12T04:43:44;100209.81;;;20.65;100.00
74794;BME280;63320;50.768;6.724;2023-08-12T04:46:09;100208.56;;;20.59;100.00
74794;BME280;63320;50.768;6.724;2023-08-12T04:48:35;100212.06;;;20.60;100.00
74794;BME280;63320;50.768;6.724;2023-08-12T04:51:01;100209.25;;;20.61;100.00
74794;BME280;63320;50.768;6.724;2023-08-12T04:53:26;100202.50;;;20.57;100.00
74794;BME280;63320;50.768;6.724;2023-08-12T04:55:52;100204.06;;;20.69;100.00
74794;BME280;63320;50.768;6.724;2023-08-12T04:58:17;100199.00;;;20.66;100.00
74794;BME280;63320;50.768;6.724;2023-08-12T05:00:42;100213.63;;;20.72;100.00
74794;BME280;63320;50.768;6.724;2023-08-12T05:03:07;100222.22;;;20.76;100.00
74794;BME280;63320;50.768;6.724;2023-08-12T05:05:35;100215.31;;;20.73;100.00
74794;BME280;63320;50.768;6.724;2023-08-12T05:08:01;100223.63;;;20.70;100.00
74794;BME280;63320;50.768;6.724;2023-08-12T05:10:26;100220.22;;;20.78;100.00
74794;BME280;63320;50.768;6.724;2023-08-12T05:12:51;100221.50;;;20.83;100.00
74794;BME280;63320;50.768;6.724;2023-08-12T05:15:17;100225.16;;;20.82;100.00
74794;BME280;63320;50.768;6.724;2023-08-12T05:17:42;100218.81;;;20.83;100.00
74794;BME280;63320;50.768;6.724;2023-08-12T05:20:08;100216.44;;;20.80;100.00
74794;BME280;63320;50.768;6.724;2023-08-12T05:22:35;100218.41;;;20.88;100.00
74794;BME280;63320;50.768;6.724;2023-08-12T05:25:00;100223.31;;;20.83;100.00
74794;BME280;63320;50.768;6.724;2023-08-12T05:27:25;100229.97;;;20.88;100.00
74794;BME280;63320;50.768;6.724;2023-08-12T05:29:51;100234.44;;;20.78;100.00
74794;BME280;63320;50.768;6.724;2023-08-12T05:32:16;100237.09;;;20.78;99.33
74794;BME280;63320;50.768;6.724;2023-08-12T05:34:41;100253.59;;;20.74;99.44
74794;BME280;63320;50.768;6.724;2023-08-12T05:37:07;100247.78;;;20.78;99.29
74794;BME280;63320;50.768;6.724;2023-08-12T05:39:33;100249.19;;;20.73;98.81
74794;BME280;63320;50.768;6.724;2023-08-12T05:41:59;100243.16;;;20.71;97.87
74794;BME280;63320;50.768;6.724;2023-08-12T05:44:24;100247.09;;;20.66;98.50
74794;BME280;63320;50.768;6.724;2023-08-12T05:46:49;100249.59;;;20.68;97.91
74794;BME280;63320;50.768;6.724;2023-08-12T05:49:15;100252.41;;;20.57;97.60
74794;BME280;63320;50.768;6.724;2023-08-12T05:51:40;100254.25;;;20.66;97.65
74794;BME280;63320;50.768;6.724;2023-08-12T05:54:05;100259.44;;;20.58;97.85
74794;BME280;63320;50.768;6.724;2023-08-12T05:56:32;100243.81;;;20.53;98.27
74794;BME280;63320;50.768;6.724;2023-08-12T05:58:57;100230.59;;;20.52;98.01
74794;BME280;63320;50.768;6.724;2023-08-12T06:01:23;100233.63;;;20.37;98.22
74794;BME280;63320;50.768;6.724;2023-08-12T06:03:48;100233.09;;;20.43;99.00
74794;BME280;63320;50.768;6.724;2023-08-12T06:06:13;100241.22;;;20.42;98.61
74794;BME280;63320;50.768;6.724;2023-08-12T06:08:39;100247.41;;;20.42;98.26
74794;BME280;63320;50.768;6.724;2023-08-12T06:11:04;100232.63;;;20.29;99.11
74794;BME280;63320;50.768;6.724;2023-08-12T06:13:31;100227.44;;;20.37;98.96
74794;BME280;63320;50.768;6.724;2023-08-12T06:15:56;100218.72;;;20.35;98.28
74794;BME280;63320;50.768;6.724;2023-08-12T06:18:22;100217.59;;;20.37;98.69
74794;BME280;63320;50.768;6.724;2023-08-12T06:20:47;100216.94;;;20.45;98.42
74794;BME280;63320;50.768;6.724;2023-08-12T06:23:12;100204.19;;;20.49;98.25
74794;BME280;63320;50.768;6.724;2023-08-12T06:25:38;100199.38;;;20.52;98.34
74794;BME280;63320;50.768;6.724;2023-08-12T06:28:04;100196.31;;;20.57;97.56
74794;BME280;63320;50.768;6.724;2023-08-12T06:30:31;100199.28;;;20.54;97.30
74794;BME280;63320;50.768;6.724;2023-08-12T06:32:56;100205.03;;;20.59;97.02
74794;BME280;63320;50.768;6.724;2023-08-12T06:35:22;100201.53;;;20.58;96.75
74794;BME280;63320;50.768;6.724;2023-08-12T06:37:47;100194.63;;;20.56;97.09
74794;BME280;63320;50.768;6.724;2023-08-12T06:40:13;100191.09;;;20.55;97.23
74794;BME280;63320;50.768;6.724;2023-08-12T06:42:38;100192.38;;;20.61;97.10
74794;BME280;63320;50.768;6.724;2023-08-12T06:45:04;100177.75;;;20.65;97.12
74794;BME280;63320;50.768;6.724;2023-08-12T06:47:31;100181.53;;;20.62;97.86
74794;BME280;63320;50.768;6.724;2023-08-12T06:49:57;100169.91;;;20.63;98.05
74794;BME280;63320;50.768;6.724;2023-08-12T06:52:22;100175.78;;;20.67;98.70
74794;BME280;63320;50.768;6.724;2023-08-12T06:54:47;100171.00;;;20.71;97.98
74794;BME280;63320;50.768;6.724;2023-08-12T06:57:13;100169.03;;;20.73;98.28
74794;BME280;63320;50.768;6.724;2023-08-12T06:59:38;100173.84;;;20.69;97.72
74794;BME280;63320;50.768;6.724;2023-08-12T07:02:04;100176.19;;;20.62;97.71
74794;BME280;63320;50.768;6.724;2023-08-12T07:04:30;100180.00;;;20.60;98.33
74794;BME280;63320;50.768;6.724;2023-08-12T07:06:56;100187.19;;;20.59;97.50
74794;BME280;63320;50.768;6.724;2023-08-12T07:09:21;100192.38;;;20.71;98.10
74794;BME280;63320;50.768;6.724;2023-08-12T07:11:46;100188.88;;;20.60;97.13
74794;BME280;63320;50.768;6.724;2023-08-12T07:14:12;100190.53;;;20.61;97.57
74794;BME280;63320;50.768;6.724;2023-08-12T07:16:37;100184.53;;;20.69;97.03
74794;BME280;63320;50.768;6.724;2023-08-12T07:19:03;100209.13;;;20.73;96.70
74794;BME280;63320;50.768;6.724;2023-08-12T07:21:29;100196.47;;;20.75;95.96
74794;BME280;63320;50.768;6.724;2023-08-12T07:23:55;100183.69;;;20.68;94.73
74794;BME280;63320;50.768;6.724;2023-08-12T07:26:20;100200.25;;;20.82;94.49
74794;BME280;63320;50.768;6.724;2023-08-12T07:28:45;100195.22;;;20.88;94.90
74794;BME280;63320;50.768;6.724;2023-08-12T07:31:11;100201.84;;;20.84;95.31
74794;BME280;63320;50.768;6.724;2023-08-12T07:33:36;100194.78;;;20.83;94.71
74794;BME280;63320;50.768;6.724;2023-08-12T07:36:02;100187.75;;;20.92;93.53
74794;BME280;63320;50.768;6.724;2023-08-12T07:38:29;100206.88;;;20.97;93.78
74794;BME280;63320;50.768;6.724;2023-08-12T07:40:54;100197.59;;;21.01;93.49
74794;BME280;63320;50.768;6.724;2023-08-12T07:43:20;100200.00;;;21.04;93.46
74794;BME280;63320;50.768;6.724;2023-08-12T07:45:50;100193.94;;;21.02;92.70
74794;BME280;63320;50.768;6.724;2023-08-12T07:48:16;100183.53;;;20.99;93.13
74794;BME280;63320;50.768;6.724;2023-08-12T07:50:41;100189.16;;;21.06;92.77
74794;BME280;63320;50.768;6.724;2023-08-12T07:53:06;100190.13;;;21.14;93.34
74794;BME280;63320;50.768;6.724;2023-08-12T07:55:34;100178.44;;;21.15;93.03
74794;BME280;63320;50.768;6.724;2023-08-12T07:57:59;100177.03;;;21.11;91.85
74794;BME280;63320;50.768;6.724;2023-08-12T08:00:24;100167.75;;;21.25;92.70
74794;BME280;63320;50.768;6.724;2023-08-12T08:02:50;100171.53;;;21.32;92.00
74794;BME280;63320;50.768;6.724;2023-08-12T08:05:15;100153.22;;;21.28;92.09
74794;BME280;63320;50.768;6.724;2023-08-12T08:07:40;100159.88;;;21.24;92.87
74794;BME280;63320;50.768;6.724;2023-08-12T08:10:07;100153.38;;;21.26;92.55
74794;BME280;63320;50.768;6.724;2023-08-12T08:12:33;100146.19;;;21.27;91.72
74794;BME280;63320;50.768;6.724;2023-08-12T08:14:59;100149.16;;;21.33;92.12
74794;BME280;63320;50.768;6.724;2023-08-12T08:17:24;100155.06;;;21.27;91.32
74794;BME280;63320;50.768;6.724;2023-08-12T08:19:49;100158.16;;;21.23;90.49
74794;BME280;63320;50.768;6.724;2023-08-12T08:22:15;100171.13;;;21.37;91.03
74794;BME280;63320;50.768;6.724;2023-08-12T08:24:40;100172.25;;;21.44;90.33
74794;BME280;63320;50.768;6.724;2023-08-12T08:27:05;100178.97;;;21.48;90.32
74794;BME280;63320;50.768;6.724;2023-08-12T08:29:32;100170.41;;;21.44;90.44
74794;BME280;63320;50.768;6.724;2023-08-12T08:31:57;100180.13;;;21.36;91.24
74794;BME280;63320;50.768;6.724;2023-08-12T08:34:23;100185.03;;;21.50;91.12
74794;BME280;63320;50.768;6.724;2023-08-12T08:36:48;100186.53;;;21.62;91.30
74794;BME280;63320;50.768;6.724;2023-08-12T08:39:14;100190.63;;;21.57;91.03
74794;BME280;63320;50.768;6.724;2023-08-12T08:41:40;100194.47;;;21.54;90.44
74794;BME280;63320;50.768;6.724;2023-08-12T08:44:07;100195.72;;;21.60;89.76
74794;BME280;63320;50.768;6.724;2023-08-12T08:46:34;100196.25;;;21.63;89.38
74794;BME280;63320;50.768;6.724;2023-08-12T08:49:00;100198.38;;;21.69;88.57
74794;BME280;63320;50.768;6.724;2023-08-12T08:51:26;100197.75;;;21.85;87.77
74794;BME280;63320;50.768;6.724;2023-08-12T08:53:53;100197.44;;;21.88;87.52
74794;BME280;63320;50.768;6.724;2023-08-12T08:56:19;100195.91;;;21.86;87.53
74794;BME280;63320;50.768;6.724;2023-08-12T08:58:45;100210.09;;;21.96;86.80
74794;BME280;63320;50.768;6.724;2023-08-12T09:01:11;100207.22;;;22.07;87.29
74794;BME280;63320;50.768;6.724;2023-08-12T09:03:38;100209.19;;;22.15;86.27
74794;BME280;63320;50.768;6.724;2023-08-12T09:06:04;100202.78;;;22.26;86.39
74794;BME280;63320;50.768;6.724;2023-08-12T09:08:31;100204.53;;;22.17;83.37
74794;BME280;63320;50.768;6.724;2023-08-12T09:10:58;100197.59;;;22.24;82.80
74794;BME280;63320;50.768;6.724;2023-08-12T09:13:24;100211.00;;;22.24;82.80
74794;BME280;63320;50.768;6.724;2023-08-12T09:15:50;100200.13;;;22.26;82.68
74794;BME280;63320;50.768;6.724;2023-08-12T09:18:15;100188.69;;;22.51;83.71
74794;BME280;63320;50.768;6.724;2023-08-12T09:20:42;100192.94;;;22.44;81.34
74794;BME280;63320;50.768;6.724;2023-08-12T09:23:07;100210.47;;;22.38;81.38
74794;BME280;63320;50.768;6.724;2023-08-12T09:25:33;100203.25;;;22.39;82.16
74794;BME280;63320;50.768;6.724;2023-08-12T09:27:59;100206.09;;;22.37;81.64
74794;BME280;63320;50.768;6.724;2023-08-12T09:30:28;100207.25;;;22.35;82.71
74794;BME280;63320;50.768;6.724;2023-08-12T09:33:01;100198.31;;;22.44;80.72
74794;BME280;63320;50.768;6.724;2023-08-12T09:35:32;100195.59;;;22.71;81.86
74794;BME280;63320;50.768;6.724;2023-08-12T09:37:59;100203.09;;;22.86;81.15
74794;BME280;63320;50.768;6.724;2023-08-12T09:40:24;100203.25;;;22.66;81.31
74794;BME280;63320;50.768;6.724;2023-08-12T09:42:49;100202.47;;;22.56;81.44
74794;BME280;63320;50.768;6.724;2023-08-12T09:45:15;100217.78;;;22.46;81.42
74794;BME280;63320;50.768;6.724;2023-08-12T09:47:41;100215.03;;;22.28;81.30
74794;BME280;63320;50.768;6.724;2023-08-12T09:50:07;100215.63;;;22.22;81.83
74794;BME280;63320;50.768;6.724;2023-08-12T09:52:32;100218.75;;;22.17;83.04
74794;BME280;63320;50.768;6.724;2023-08-12T09:55:02;100221.88;;;22.13;82.41
74794;BME280;63320;50.768;6.724;2023-08-12T09:57:30;100220.44;;;22.18;82.59
74794;BME280;63320;50.768;6.724;2023-08-12T10:00:00;100205.66;;;22.42;82.21
74794;BME280;63320;50.768;6.724;2023-08-12T10:02:26;100205.88;;;22.48;82.95
74794;BME280;63320;50.768;6.724;2023-08-12T10:04:53;100202.63;;;22.55;82.86
74794;BME280;63320;50.768;6.724;2023-08-12T10:07:22;100203.34;;;22.74;83.58
74794;BME280;63320;50.768;6.724;2023-08-12T10:09:48;100209.16;;;22.70;81.09
74794;BME280;63320;50.768;6.724;2023-08-12T10:12:15;100205.59;;;22.52;78.77
74794;BME280;63320;50.768;6.724;2023-08-12T10:14:41;100203.31;;;22.57;80.48
74794;BME280;63320;50.768;6.724;2023-08-12T10:17:07;100199.56;;;22.67;80.35
74794;BME280;63320;50.768;6.724;2023-08-12T10:19:33;100201.94;;;22.70;78.98
74794;BME280;63320;50.768;6.724;2023-08-12T10:21:59;100200.66;;;22.74;78.02
74794;BME280;63320;50.768;6.724;2023-08-12T10:24:26;100196.97;;;22.75;77.65
74794;BME280;63320;50.768;6.724;2023-08-12T10:26:53;100191.53;;;22.85;78.13
74794;BME280;63320;50.768;6.724;2023-08-12T10:29:20;100192.09;;;23.07;76.60
74794;BME280;63320;50.768;6.724;2023-08-12T10:31:46;100185.88;;;23.06;76.80
74794;BME280;63320;50.768;6.724;2023-08-12T10:34:18;100191.63;;;22.93;77.17
74794;BME280;63320;50.768;6.724;2023-08-12T10:36:44;100190.38;;;22.88;76.00
74794;BME280;63320;50.768;6.724;2023-08-12T10:39:09;100197.16;;;22.92;76.28
74794;BME280;63320;50.768;6.724;2023-08-12T10:41:35;100189.69;;;22.86;76.25
74794;BME280;63320;50.768;6.724;2023-08-12T10:44:01;100193.84;;;22.80;77.04
74794;BME280;63320;50.768;6.724;2023-08-12T10:46:33;100194.97;;;22.78;78.11
74794;BME280;63320;50.768;6.724;2023-08-12T10:49:02;100187.38;;;22.73;78.04
74794;BME280;63320;50.768;6.724;2023-08-12T10:51:44;100188.38;;;22.54;78.01
74794;BME280;63320;50.768;6.724;2023-08-12T10:54:13;100193.31;;;22.49;79.29
74794;BME280;63320;50.768;6.724;2023-08-12T10:57:04;100178.81;;;22.69;78.50
74794;BME280;63320;50.768;6.724;2023-08-12T10:59:48;100177.38;;;22.93;77.26
74794;BME280;63320;50.768;6.724;2023-08-12T11:02:18;100167.34;;;22.95;77.89
74794;BME280;63320;50.768;6.724;2023-08-12T11:04:43;100160.19;;;23.04;77.64
74794;BME280;63320;50.768;6.724;2023-08-12T11:07:15;100161.28;;;22.93;77.25
74794;BME280;63320;50.768;6.724;2023-08-12T11:09:40;100165.13;;;22.90;76.40
74794;BME280;63320;50.768;6.724;2023-08-12T11:12:06;100158.94;;;22.90;75.58
74794;BME280;63320;50.768;6.724;2023-08-12T11:14:31;100169.94;;;22.87;75.96
74794;BME280;63320;50.768;6.724;2023-08-12T11:16:56;100173.53;;;22.78;76.00
74794;BME280;63320;50.768;6.724;2023-08-12T11:19:24;100155.25;;;22.91;76.39
74794;BME280;63320;50.768;6.724;2023-08-12T11:21:51;100163.50;;;22.97;74.99
74794;BME280;63320;50.768;6.724;2023-08-12T11:24:17;100159.38;;;22.85;74.73
74794;BME280;63320;50.768;6.724;2023-08-12T11:26:43;100163.88;;;22.85;75.77
74794;BME280;63320;50.768;6.724;2023-08-12T11:29:11;100155.31;;;22.81;76.21
74794;BME280;63320;50.768;6.724;2023-08-12T11:31:36;100153.28;;;22.83;77.40
74794;BME280;63320;50.768;6.724;2023-08-12T11:34:02;100151.94;;;22.97;76.88
74794;BME280;63320;50.768;6.724;2023-08-12T11:36:29;100154.63;;;22.97;76.24
74794;BME280;63320;50.768;6.724;2023-08-12T11:38:56;100146.50;;;22.89;75.97
74794;BME280;63320;50.768;6.724;2023-08-12T11:41:22;100156.38;;;22.88;76.21
74794;BME280;63320;50.768;6.724;2023-08-12T11:43:47;100162.19;;;22.84;75.36
74794;BME280;63320;50.768;6.724;2023-08-12T11:46:15;100152.72;;;22.89;75.90
74794;BME280;63320;50.768;6.724;2023-08-12T11:48:40;100150.31;;;22.86;76.35
74794;BME280;63320;50.768;6.724;2023-08-12T11:51:08;100152.00;;;23.05;75.11
74794;BME280;63320;50.768;6.724;2023-08-12T11:53:35;100152.91;;;23.14;74.36
74794;BME280;63320;50.768;6.724;2023-08-12T11:56:00;100143.25;;;23.21;74.42
74794;BME280;63320;50.768;6.724;2023-08-12T11:58:26;100154.50;;;23.50;73.83
74794;BME280;63320;50.768;6.724;2023-08-12T12:00:51;100151.66;;;23.52;73.83
74794;BME280;63320;50.768;6.724;2023-08-12T12:03:17;100151.94;;;23.41;72.65
74794;BME280;63320;50.768;6.724;2023-08-12T12:05:46;100158.25;;;23.32;73.52
74794;BME280;63320;50.768;6.724;2023-08-12T12:08:11;100148.88;;;23.36;72.61
74794;BME280;63320;50.768;6.724;2023-08-12T12:10:38;100146.09;;;23.19;72.57
74794;BME280;63320;50.768;6.724;2023-08-12T12:13:04;100150.38;;;23.12;73.04
74794;BME280;63320;50.768;6.724;2023-08-12T12:15:29;100151.22;;;23.13;73.27
74794;BME280;63320;50.768;6.724;2023-08-12T12:17:55;100147.31;;;23.25;73.62
74794;BME280;63320;50.768;6.724;2023-08-12T12:20:20;100153.13;;;23.20;73.61
74794;BME280;63320;50.768;6.724;2023-08-12T12:22:46;100158.72;;;23.27;74.06
74794;BME280;63320;50.768;6.724;2023-08-12T12:25:14;100138.34;;;23.16;74.50
74794;BME280;63320;50.768;6.724;2023-08-12T12:27:42;100139.16;;;23.35;73.50
74794;BME280;63320;50.768;6.724;2023-08-12T12:30:10;100150.19;;;23.32;73.06
74794;BME280;63320;50.768;6.724;2023-08-12T12:32:36;100156.56;;;23.31;73.25
74794;BME280;63320;50.768;6.724;2023-08-12T12:35:02;100159.44;;;23.37;72.51
74794;BME280;63320;50.768;6.724;2023-08-12T12:37:27;100166.38;;;23.48;72.16
74794;BME280;63320;50.768;6.724;2023-08-12T12:39:53;100155.19;;;23.78;72.00
74794;BME280;63320;50.768;6.724;2023-08-12T12:42:18;100150.84;;;23.86;71.57